Flight Information

DEPARTURE
SACRAMENTO, CA
Elevation:
26
Runways:
17R/35L - 8598x150 - CONC-G
17L/35R - 8605x150 - CONC-G
ATIS:
126.75 916-874-0679
Clearance Delivery:
121.1
Ground:
121.7
Tower:
CAPITOL TOWER 125.7
DESTINATION
,
Elevation:
TPA:
1000 (est.)


6847.7 NM69° True-16° Var53° HDG

Flight Plan:
(click to file on line)

1. Type
2. Aircraft Identification
3. Aircraft Type / Special Equipment
4. True Airspeed
kts
5. Departure Airport
(ICAO code)
6. Arriving Airport
(ICAO code)
7. Cruising Altitude
ft
8. Alternate Airport
(ICAO code)
9. Route of Flight
10. Remarks


00:00:00 Departure ATIS: Destination ATIS:

Clearance Limit:
Route:
Altitude: Expect in minutes
Frequency:
Transponder: (7500 Hijack / 7600 Lost Comms / 7700 Emergency)


KSMF 261253Z 15006KT 10SM CLR 17/09 A2992 RMK AO2 SLP130 T01720094
Time: 2022-06-26T12:53:00Z
1656251343
Winds: 150 @ 6 kts
Visibility: 10.0 sm
Clouds (AGL): CLR
Temperature: 17.2 C
Dew Point: 9.4 C
Pressure: 29.920275 in Hgbr


Notes:

Data extracted from FAA Digital Chart Supplement. Effective: 0901Z Thursday, 27 JAN 2022 to 0900z Thursday, 24 MAR 2022
Current ATIS data is provided courtisy of PilotEdge.